Impacts METAR Board
IDs:

KGJT - Grand Junction Rgnl, CO, US

Updated at: 1300 UTC 07 Jul 2020
Potential Impact None Slight Moderate High
Time 07/01Z 07/02Z 07/03Z 07/04Z 07/05Z 07/06Z 07/07Z 07/08Z 07/09Z 07/10Z 07/11Z 07/12Z 07/13Z
Temp98 96 92 83 78 80 78 79 74 71 70 67 73
Dewpt19 20 22 18 19 23 27 28 30 29 29 28 32
Altim29.92 29.92 29.92 29.93 29.95 29.95 29.95 29.96 29.95 29.98 29.98 29.99 30.00
VIS10 10 10 10 10 10 10 10 10 10 10 10 10
CIG-- -- -- -- -- -- -- -- -- -- -- -- --
CoverCLRCLRCLRCLRCLRCLRCLRCLRCLRCLRCLRCLRCLR
FltCatVFRVFRVFRVFRVFRVFRVFRVFRVFRVFRVFRVFRVFR
WX--------------------------
WDir3003000070401001001108017080140
WSpd17 8 0 0 3 5 8 12 12 9 5 3 14
WGst-- -- -- -- -- -- -- -- -- -- -- -- --
Raw hourly METARs
KGJT 070053Z 30017KT 10SM CLR 37/M07 A2992 RMK AO2 SLP042 T03671072
KGJT 070153Z 30008KT 10SM CLR 36/M07 A2992 RMK AO2 SLP043 T03561067
KGJT 070253Z 00000KT 10SM CLR 33/M06 A2992 RMK AO2 SLP042 T03331056 56004
KGJT 070353Z AUTO 00000KT 10SM CLR 28/M08 A2993 RMK AO2 SLP051 T02831078
KGJT 070453Z AUTO 07003KT 10SM CLR 26/M07 A2995 RMK AO2 SLP057 T02561072
KGJT 070553Z AUTO 04005KT 10SM CLR 27/M05 A2995 RMK AO2 SLP053 T02671050 10378 20256 51008
KGJT 070653Z AUTO 10008KT 10SM CLR 26/M03 A2995 RMK AO2 SLP056 T02561028 403780206
KGJT 070753Z AUTO 10012KT 10SM CLR 26/M02 A2996 RMK AO2 SLP054 T02611022
KGJT 070853Z AUTO 11012KT 10SM CLR 23/M01 A2995 RMK AO2 SLP055 T02331011 50002
KGJT 070953Z AUTO 08009KT 10SM CLR 22/M02 A2998 RMK AO2 SLP065 T02171017
KGJT 071053Z AUTO 17005KT 10SM CLR 21/M02 A2998 RMK AO2 SLP065 T02111017
KGJT 071153Z AUTO 08003KT 10SM CLR 19/M02 A2999 RMK AO2 SLP072 T01941022 10272 20194 51011
KGJT 071253Z 14014KT 10SM CLR 23/00 A3000 RMK AO2 SLP073 T02280000



Page loaded:  13:42 UTC  |   06:42 AM Pacific  |   07:42 AM Mountain  |   08:42 AM Central  |   09:42 AM Eastern

 

ADVISORIES

FORECASTS

FORECASTS

OBSERVATIONS

USER TOOLS

ABOUT US